sensor_id;sensor_type;location;lat;lon;timestamp;P1;durP1;ratioP1;P2;durP2;ratioP2
65558;SDS011;52203;51.998;5.140;2023-07-28T00:01:24;11.98;;;5.85;;
65558;SDS011;52203;51.998;5.140;2023-07-28T00:03:50;13.35;;;5.60;;
65558;SDS011;52203;51.998;5.140;2023-07-28T00:06:22;13.27;;;5.05;;
65558;SDS011;52203;51.998;5.140;2023-07-28T00:08:48;11.90;;;5.30;;
65558;SDS011;52203;51.998;5.140;2023-07-28T00:11:14;11.63;;;5.10;;
65558;SDS011;52203;51.998;5.140;2023-07-28T00:13:40;11.13;;;5.10;;
65558;SDS011;52203;51.998;5.140;2023-07-28T00:16:07;10.57;;;4.85;;
65558;SDS011;52203;51.998;5.140;2023-07-28T00:18:33;10.45;;;5.45;;
65558;SDS011;52203;51.998;5.140;2023-07-28T00:20:59;9.18;;;4.05;;
65558;SDS011;52203;51.998;5.140;2023-07-28T00:23:25;9.32;;;4.60;;
65558;SDS011;52203;51.998;5.140;2023-07-28T00:25:51;11.48;;;5.35;;
65558;SDS011;52203;51.998;5.140;2023-07-28T00:28:16;10.48;;;4.25;;
65558;SDS011;52203;51.998;5.140;2023-07-28T00:30:42;8.63;;;3.97;;
65558;SDS011;52203;51.998;5.140;2023-07-28T00:33:08;12.35;;;4.30;;
65558;SDS011;52203;51.998;5.140;2023-07-28T00:35:34;9.20;;;4.07;;
65558;SDS011;52203;51.998;5.140;2023-07-28T00:38:00;10.27;;;3.95;;
65558;SDS011;52203;51.998;5.140;2023-07-28T00:40:28;11.90;;;3.95;;
65558;SDS011;52203;51.998;5.140;2023-07-28T00:42:54;12.27;;;4.07;;
65558;SDS011;52203;51.998;5.140;2023-07-28T00:45:19;10.43;;;3.92;;
65558;SDS011;52203;51.998;5.140;2023-07-28T00:47:45;8.88;;;4.05;;
65558;SDS011;52203;51.998;5.140;2023-07-28T00:50:11;9.48;;;4.15;;
65558;SDS011;52203;51.998;5.140;2023-07-28T00:52:37;12.70;;;4.55;;
65558;SDS011;52203;51.998;5.140;2023-07-28T00:55:03;11.45;;;4.47;;
65558;SDS011;52203;51.998;5.140;2023-07-28T00:57:30;10.25;;;4.65;;
65558;SDS011;52203;51.998;5.140;2023-07-28T00:59:56;11.00;;;4.82;;
65558;SDS011;52203;51.998;5.140;2023-07-28T01:02:22;11.10;;;4.15;;
65558;SDS011;52203;51.998;5.140;2023-07-28T01:04:48;10.93;;;4.70;;
65558;SDS011;52203;51.998;5.140;2023-07-28T01:07:20;13.75;;;5.38;;
65558;SDS011;52203;51.998;5.140;2023-07-28T01:09:57;13.00;;;5.15;;
65558;SDS011;52203;51.998;5.140;2023-07-28T01:12:36;14.98;;;5.70;;
65558;SDS011;52203;51.998;5.140;2023-07-28T01:15:02;13.93;;;5.75;;
65558;SDS011;52203;51.998;5.140;2023-07-28T01:17:27;13.52;;;4.80;;
65558;SDS011;52203;51.998;5.140;2023-07-28T01:19:53;12.13;;;5.50;;
65558;SDS011;52203;51.998;5.140;2023-07-28T01:22:35;13.50;;;5.65;;
65558;SDS011;52203;51.998;5.140;2023-07-28T01:27:58;11.82;;;5.28;;
65558;SDS011;52203;51.998;5.140;2023-07-28T01:30:26;13.45;;;5.05;;
65558;SDS011;52203;51.998;5.140;2023-07-28T01:32:56;17.90;;;6.25;;
65558;SDS011;52203;51.998;5.140;2023-07-28T01:35:25;12.88;;;5.88;;
65558;SDS011;52203;51.998;5.140;2023-07-28T01:37:51;15.20;;;5.40;;
65558;SDS011;52203;51.998;5.140;2023-07-28T01:40:20;12.85;;;6.20;;
65558;SDS011;52203;51.998;5.140;2023-07-28T01:42:45;12.13;;;5.28;;
65558;SDS011;52203;51.998;5.140;2023-07-28T01:45:11;15.70;;;6.30;;
65558;SDS011;52203;51.998;5.140;2023-07-28T01:47:37;16.42;;;6.55;;
65558;SDS011;52203;51.998;5.140;2023-07-28T01:50:06;13.77;;;6.63;;
65558;SDS011;52203;51.998;5.140;2023-07-28T01:52:32;21.02;;;6.70;;
65558;SDS011;52203;51.998;5.140;2023-07-28T01:54:57;14.90;;;6.38;;
65558;SDS011;52203;51.998;5.140;2023-07-28T01:57:23;19.20;;;6.53;;
65558;SDS011;52203;51.998;5.140;2023-07-28T01:59:52;18.33;;;6.63;;
65558;SDS011;52203;51.998;5.140;2023-07-28T02:02:18;17.23;;;7.13;;
65558;SDS011;52203;51.998;5.140;2023-07-28T02:04:43;18.73;;;8.00;;
65558;SDS011;52203;51.998;5.140;2023-07-28T02:07:09;18.30;;;6.93;;
65558;SDS011;52203;51.998;5.140;2023-07-28T02:09:34;20.98;;;7.18;;
65558;SDS011;52203;51.998;5.140;2023-07-28T02:12:00;13.63;;;6.72;;
65558;SDS011;52203;51.998;5.140;2023-07-28T02:14:26;16.35;;;6.72;;
65558;SDS011;52203;51.998;5.140;2023-07-28T02:16:51;18.85;;;7.75;;
65558;SDS011;52203;51.998;5.140;2023-07-28T02:19:20;18.73;;;6.88;;
65558;SDS011;52203;51.998;5.140;2023-07-28T02:21:45;22.70;;;7.45;;
65558;SDS011;52203;51.998;5.140;2023-07-28T02:24:11;21.15;;;7.22;;
65558;SDS011;52203;51.998;5.140;2023-07-28T02:26:37;19.85;;;7.00;;
65558;SDS011;52203;51.998;5.140;2023-07-28T02:29:02;23.52;;;7.82;;
65558;SDS011;52203;51.998;5.140;2023-07-28T02:31:28;21.90;;;7.30;;
65558;SDS011;52203;51.998;5.140;2023-07-28T02:33:54;20.00;;;7.55;;
65558;SDS011;52203;51.998;5.140;2023-07-28T02:36:23;19.33;;;7.03;;
65558;SDS011;52203;51.998;5.140;2023-07-28T02:38:48;25.55;;;7.72;;
65558;SDS011;52203;51.998;5.140;2023-07-28T02:41:14;21.05;;;7.88;;
65558;SDS011;52203;51.998;5.140;2023-07-28T02:43:39;18.92;;;8.23;;
65558;SDS011;52203;51.998;5.140;2023-07-28T02:46:05;18.85;;;8.57;;
65558;SDS011;52203;51.998;5.140;2023-07-28T02:48:30;20.98;;;8.60;;
65558;SDS011;52203;51.998;5.140;2023-07-28T02:50:56;22.80;;;8.73;;
65558;SDS011;52203;51.998;5.140;2023-07-28T02:53:21;23.40;;;8.85;;
65558;SDS011;52203;51.998;5.140;2023-07-28T02:55:47;24.33;;;9.05;;
65558;SDS011;52203;51.998;5.140;2023-07-28T02:58:13;25.90;;;9.75;;
65558;SDS011;52203;51.998;5.140;2023-07-28T03:00:40;24.23;;;8.88;;
65558;SDS011;52203;51.998;5.140;2023-07-28T03:03:10;26.50;;;9.40;;
65558;SDS011;52203;51.998;5.140;2023-07-28T03:05:36;26.15;;;9.23;;
65558;SDS011;52203;51.998;5.140;2023-07-28T03:08:02;19.45;;;8.95;;
65558;SDS011;52203;51.998;5.140;2023-07-28T03:10:29;25.88;;;9.60;;
65558;SDS011;52203;51.998;5.140;2023-07-28T03:12:55;30.50;;;9.52;;
65558;SDS011;52203;51.998;5.140;2023-07-28T03:15:21;23.40;;;8.60;;
65558;SDS011;52203;51.998;5.140;2023-07-28T03:17:47;25.00;;;9.50;;
65558;SDS011;52203;51.998;5.140;2023-07-28T03:20:13;23.02;;;8.48;;
65558;SDS011;52203;51.998;5.140;2023-07-28T03:22:39;25.98;;;9.77;;
65558;SDS011;52203;51.998;5.140;2023-07-28T03:25:05;24.67;;;8.82;;
65558;SDS011;52203;51.998;5.140;2023-07-28T03:27:31;23.80;;;9.15;;
65558;SDS011;52203;51.998;5.140;2023-07-28T03:29:56;30.15;;;9.25;;
65558;SDS011;52203;51.998;5.140;2023-07-28T03:32:22;25.58;;;8.40;;
65558;SDS011;52203;51.998;5.140;2023-07-28T03:34:48;23.95;;;9.70;;
65558;SDS011;52203;51.998;5.140;2023-07-28T03:37:13;26.08;;;9.98;;
65558;SDS011;52203;51.998;5.140;2023-07-28T03:39:39;29.08;;;10.10;;
65558;SDS011;52203;51.998;5.140;2023-07-28T03:42:04;27.75;;;9.80;;
65558;SDS011;52203;51.998;5.140;2023-07-28T03:44:31;27.80;;;9.88;;
65558;SDS011;52203;51.998;5.140;2023-07-28T03:46:56;24.25;;;9.48;;
65558;SDS011;52203;51.998;5.140;2023-07-28T03:49:22;26.25;;;9.52;;
65558;SDS011;52203;51.998;5.140;2023-07-28T03:51:47;23.05;;;9.52;;
65558;SDS011;52203;51.998;5.140;2023-07-28T03:54:13;23.38;;;9.25;;
65558;SDS011;52203;51.998;5.140;2023-07-28T03:56:38;26.60;;;9.45;;
65558;SDS011;52203;51.998;5.140;2023-07-28T03:59:04;23.92;;;8.77;;
65558;SDS011;52203;51.998;5.140;2023-07-28T04:01:30;27.15;;;9.32;;
65558;SDS011;52203;51.998;5.140;2023-07-28T04:03:56;27.80;;;10.27;;
65558;SDS011;52203;51.998;5.140;2023-07-28T04:06:38;26.65;;;9.93;;
65558;SDS011;52203;51.998;5.140;2023-07-28T04:09:06;22.40;;;9.35;;
65558;SDS011;52203;51.998;5.140;2023-07-28T04:11:32;28.38;;;9.73;;
65558;SDS011;52203;51.998;5.140;2023-07-28T04:13:57;23.08;;;8.95;;
65558;SDS011;52203;51.998;5.140;2023-07-28T04:16:23;25.55;;;8.85;;
65558;SDS011;52203;51.998;5.140;2023-07-28T04:18:48;24.42;;;9.52;;
65558;SDS011;52203;51.998;5.140;2023-07-28T04:21:14;24.88;;;9.70;;
65558;SDS011;52203;51.998;5.140;2023-07-28T04:23:39;29.23;;;9.88;;
65558;SDS011;52203;51.998;5.140;2023-07-28T04:26:06;25.05;;;9.65;;
65558;SDS011;52203;51.998;5.140;2023-07-28T04:28:31;31.42;;;10.43;;
65558;SDS011;52203;51.998;5.140;2023-07-28T04:30:57;26.90;;;10.10;;
65558;SDS011;52203;51.998;5.140;2023-07-28T04:33:22;28.80;;;10.18;;
65558;SDS011;52203;51.998;5.140;2023-07-28T04:35:48;26.42;;;9.63;;
65558;SDS011;52203;51.998;5.140;2023-07-28T04:38:13;28.40;;;9.20;;
65558;SDS011;52203;51.998;5.140;2023-07-28T04:40:39;27.70;;;10.45;;
65558;SDS011;52203;51.998;5.140;2023-07-28T04:43:05;27.65;;;10.15;;
65558;SDS011;52203;51.998;5.140;2023-07-28T04:45:30;26.58;;;10.27;;
65558;SDS011;52203;51.998;5.140;2023-07-28T04:47:55;29.17;;;11.32;;
65558;SDS011;52203;51.998;5.140;2023-07-28T04:50:21;24.08;;;9.85;;
65558;SDS011;52203;51.998;5.140;2023-07-28T04:52:47;28.25;;;10.40;;
65558;SDS011;52203;51.998;5.140;2023-07-28T04:55:12;27.38;;;9.93;;
65558;SDS011;52203;51.998;5.140;2023-07-28T04:57:38;28.52;;;10.50;;
65558;SDS011;52203;51.998;5.140;2023-07-28T05:00:03;30.38;;;10.18;;
65558;SDS011;52203;51.998;5.140;2023-07-28T05:02:30;25.77;;;9.93;;
65558;SDS011;52203;51.998;5.140;2023-07-28T05:04:55;23.25;;;9.60;;
65558;SDS011;52203;51.998;5.140;2023-07-28T05:07:21;26.17;;;9.85;;
65558;SDS011;52203;51.998;5.140;2023-07-28T05:09:46;28.48;;;10.35;;
65558;SDS011;52203;51.998;5.140;2023-07-28T05:12:12;26.90;;;10.10;;
65558;SDS011;52203;51.998;5.140;2023-07-28T05:14:38;24.20;;;10.20;;
65558;SDS011;52203;51.998;5.140;2023-07-28T05:17:04;26.67;;;10.20;;
65558;SDS011;52203;51.998;5.140;2023-07-28T05:19:29;22.85;;;9.38;;
65558;SDS011;52203;51.998;5.140;2023-07-28T05:21:55;24.63;;;10.43;;
65558;SDS011;52203;51.998;5.140;2023-07-28T05:24:21;26.35;;;9.95;;
65558;SDS011;52203;51.998;5.140;2023-07-28T05:26:49;23.25;;;9.65;;
65558;SDS011;52203;51.998;5.140;2023-07-28T05:29:15;23.88;;;9.40;;
65558;SDS011;52203;51.998;5.140;2023-07-28T05:31:40;21.80;;;9.40;;
65558;SDS011;52203;51.998;5.140;2023-07-28T05:34:06;23.08;;;9.38;;
65558;SDS011;52203;51.998;5.140;2023-07-28T05:36:32;25.20;;;10.70;;
65558;SDS011;52203;51.998;5.140;2023-07-28T05:38:57;26.25;;;10.30;;
65558;SDS011;52203;51.998;5.140;2023-07-28T05:41:23;28.63;;;10.55;;
65558;SDS011;52203;51.998;5.140;2023-07-28T05:43:49;28.10;;;10.20;;
65558;SDS011;52203;51.998;5.140;2023-07-28T05:46:15;26.70;;;9.98;;
65558;SDS011;52203;51.998;5.140;2023-07-28T05:48:41;28.25;;;10.95;;
65558;SDS011;52203;51.998;5.140;2023-07-28T05:51:06;30.30;;;10.25;;
65558;SDS011;52203;51.998;5.140;2023-07-28T05:53:32;25.30;;;9.77;;
65558;SDS011;52203;51.998;5.140;2023-07-28T05:56:01;24.17;;;9.38;;
65558;SDS011;52203;51.998;5.140;2023-07-28T05:58:26;26.55;;;10.13;;
65558;SDS011;52203;51.998;5.140;2023-07-28T06:00:53;24.83;;;10.30;;
65558;SDS011;52203;51.998;5.140;2023-07-28T06:03:19;27.15;;;10.98;;
65558;SDS011;52203;51.998;5.140;2023-07-28T06:05:44;24.10;;;10.45;;
65558;SDS011;52203;51.998;5.140;2023-07-28T06:08:10;22.15;;;10.20;;
65558;SDS011;52203;51.998;5.140;2023-07-28T06:10:36;25.30;;;10.32;;
65558;SDS011;52203;51.998;5.140;2023-07-28T06:13:02;22.38;;;9.05;;
65558;SDS011;52203;51.998;5.140;2023-07-28T06:15:28;25.75;;;9.23;;
65558;SDS011;52203;51.998;5.140;2023-07-28T06:17:53;22.45;;;8.93;;
65558;SDS011;52203;51.998;5.140;2023-07-28T06:20:19;24.85;;;10.52;;
65558;SDS011;52203;51.998;5.140;2023-07-28T06:22:45;25.42;;;9.45;;
65558;SDS011;52203;51.998;5.140;2023-07-28T06:25:11;26.60;;;10.07;;
65558;SDS011;52203;51.998;5.140;2023-07-28T06:27:36;25.42;;;9.10;;
65558;SDS011;52203;51.998;5.140;2023-07-28T06:30:03;24.23;;;9.63;;
65558;SDS011;52203;51.998;5.140;2023-07-28T06:32:30;23.48;;;8.90;;
65558;SDS011;52203;51.998;5.140;2023-07-28T06:34:56;25.25;;;9.48;;
65558;SDS011;52203;51.998;5.140;2023-07-28T06:37:22;22.67;;;9.02;;
65558;SDS011;52203;51.998;5.140;2023-07-28T06:39:48;23.08;;;9.75;;
65558;SDS011;52203;51.998;5.140;2023-07-28T06:42:14;19.88;;;8.52;;
65558;SDS011;52203;51.998;5.140;2023-07-28T06:44:41;20.13;;;8.35;;
65558;SDS011;52203;51.998;5.140;2023-07-28T06:47:07;16.80;;;8.05;;
65558;SDS011;52203;51.998;5.140;2023-07-28T06:49:32;20.67;;;8.57;;
65558;SDS011;52203;51.998;5.140;2023-07-28T06:51:58;17.08;;;7.32;;
65558;SDS011;52203;51.998;5.140;2023-07-28T06:54:23;16.98;;;7.13;;
65558;SDS011;52203;51.998;5.140;2023-07-28T06:56:49;20.73;;;7.82;;
65558;SDS011;52203;51.998;5.140;2023-07-28T06:59:15;20.15;;;7.65;;
65558;SDS011;52203;51.998;5.140;2023-07-28T07:01:41;17.60;;;6.07;;
65558;SDS011;52203;51.998;5.140;2023-07-28T07:04:06;14.50;;;6.68;;
65558;SDS011;52203;51.998;5.140;2023-07-28T07:06:32;15.15;;;6.95;;
65558;SDS011;52203;51.998;5.140;2023-07-28T07:08:57;17.88;;;7.82;;
65558;SDS011;52203;51.998;5.140;2023-07-28T07:11:23;17.60;;;7.30;;
65558;SDS011;52203;51.998;5.140;2023-07-28T07:13:49;15.82;;;6.55;;
65558;SDS011;52203;51.998;5.140;2023-07-28T07:16:15;16.60;;;6.82;;
65558;SDS011;52203;51.998;5.140;2023-07-28T07:18:42;14.55;;;6.28;;
65558;SDS011;52203;51.998;5.140;2023-07-28T07:21:08;19.35;;;6.32;;
65558;SDS011;52203;51.998;5.140;2023-07-28T07:23:34;19.02;;;6.53;;
65558;SDS011;52203;51.998;5.140;2023-07-28T07:25:59;15.98;;;7.13;;
65558;SDS011;52203;51.998;5.140;2023-07-28T07:28:25;15.27;;;6.22;;
65558;SDS011;52203;51.998;5.140;2023-07-28T07:30:50;13.13;;;6.30;;
65558;SDS011;52203;51.998;5.140;2023-07-28T07:33:16;10.88;;;5.90;;
65558;SDS011;52203;51.998;5.140;2023-07-28T07:35:41;14.77;;;6.03;;
65558;SDS011;52203;51.998;5.140;2023-07-28T07:38:08;12.38;;;5.95;;
65558;SDS011;52203;51.998;5.140;2023-07-28T07:40:34;14.25;;;6.45;;
65558;SDS011;52203;51.998;5.140;2023-07-28T07:43:01;13.50;;;5.68;;
65558;SDS011;52203;51.998;5.140;2023-07-28T07:45:28;15.13;;;6.65;;
65558;SDS011;52203;51.998;5.140;2023-07-28T07:47:54;13.25;;;6.68;;
65558;SDS011;52203;51.998;5.140;2023-07-28T07:50:20;15.82;;;5.75;;
65558;SDS011;52203;51.998;5.140;2023-07-28T07:52:46;13.00;;;5.97;;
65558;SDS011;52203;51.998;5.140;2023-07-28T07:55:13;14.88;;;5.65;;
65558;SDS011;52203;51.998;5.140;2023-07-28T07:57:39;14.65;;;5.70;;
65558;SDS011;52203;51.998;5.140;2023-07-28T08:00:07;12.57;;;5.65;;
65558;SDS011;52203;51.998;5.140;2023-07-28T08:02:36;12.10;;;5.13;;
65558;SDS011;52203;51.998;5.140;2023-07-28T08:05:02;10.40;;;4.95;;
65558;SDS011;52203;51.998;5.140;2023-07-28T08:07:31;11.15;;;4.78;;
65558;SDS011;52203;51.998;5.140;2023-07-28T08:09:56;9.25;;;4.50;;
65558;SDS011;52203;51.998;5.140;2023-07-28T08:12:22;10.05;;;4.32;;
65558;SDS011;52203;51.998;5.140;2023-07-28T08:14:47;11.57;;;5.07;;
65558;SDS011;52203;51.998;5.140;2023-07-28T08:17:13;8.60;;;4.35;;
65558;SDS011;52203;51.998;5.140;2023-07-28T08:19:39;9.43;;;4.63;;
65558;SDS011;52203;51.998;5.140;2023-07-28T08:22:05;9.68;;;3.88;;
65558;SDS011;52203;51.998;5.140;2023-07-28T08:24:32;8.80;;;3.67;;
65558;SDS011;52203;51.998;5.140;2023-07-28T08:26:58;12.98;;;4.30;;
65558;SDS011;52203;51.998;5.140;2023-07-28T08:29:23;11.55;;;4.15;;
65558;SDS011;52203;51.998;5.140;2023-07-28T08:31:50;11.23;;;4.85;;
65558;SDS011;52203;51.998;5.140;2023-07-28T08:34:16;10.38;;;4.75;;
65558;SDS011;52203;51.998;5.140;2023-07-28T08:36:42;8.13;;;4.35;;
65558;SDS011;52203;51.998;5.140;2023-07-28T08:39:08;14.35;;;4.55;;
65558;SDS011;52203;51.998;5.140;2023-07-28T08:41:34;10.95;;;4.60;;
65558;SDS011;52203;51.998;5.140;2023-07-28T08:44:00;12.85;;;4.28;;
65558;SDS011;52203;51.998;5.140;2023-07-28T08:46:26;10.10;;;4.28;;
65558;SDS011;52203;51.998;5.140;2023-07-28T08:48:52;9.85;;;4.63;;
65558;SDS011;52203;51.998;5.140;2023-07-28T08:51:18;9.52;;;4.35;;
65558;SDS011;52203;51.998;5.140;2023-07-28T08:53:43;12.13;;;6.38;;
65558;SDS011;52203;51.998;5.140;2023-07-28T08:56:09;12.63;;;6.30;;
65558;SDS011;52203;51.998;5.140;2023-07-28T08:58:34;11.02;;;5.68;;
65558;SDS011;52203;51.998;5.140;2023-07-28T09:01:00;13.73;;;5.90;;
65558;SDS011;52203;51.998;5.140;2023-07-28T09:03:26;13.38;;;5.70;;
65558;SDS011;52203;51.998;5.140;2023-07-28T09:05:54;11.35;;;5.40;;
65558;SDS011;52203;51.998;5.140;2023-07-28T09:08:25;10.38;;;4.85;;
65558;SDS011;52203;51.998;5.140;2023-07-28T09:10:50;9.43;;;4.72;;
65558;SDS011;52203;51.998;5.140;2023-07-28T09:13:17;7.93;;;4.05;;
65558;SDS011;52203;51.998;5.140;2023-07-28T09:15:43;10.55;;;3.83;;
65558;SDS011;52203;51.998;5.140;2023-07-28T09:18:10;9.80;;;3.55;;
65558;SDS011;52203;51.998;5.140;2023-07-28T09:20:38;9.48;;;3.95;;
65558;SDS011;52203;51.998;5.140;2023-07-28T09:23:06;9.07;;;4.07;;
65558;SDS011;52203;51.998;5.140;2023-07-28T09:25:33;7.60;;;3.63;;
65558;SDS011;52203;51.998;5.140;2023-07-28T09:27:59;8.43;;;3.80;;
65558;SDS011;52203;51.998;5.140;2023-07-28T09:30:25;9.98;;;4.38;;
65558;SDS011;52203;51.998;5.140;2023-07-28T09:32:52;9.95;;;4.47;;
65558;SDS011;52203;51.998;5.140;2023-07-28T09:35:19;10.38;;;4.45;;
65558;SDS011;52203;51.998;5.140;2023-07-28T09:37:47;12.68;;;4.55;;
65558;SDS011;52203;51.998;5.140;2023-07-28T09:40:17;13.02;;;4.55;;
65558;SDS011;52203;51.998;5.140;2023-07-28T09:42:45;10.23;;;4.90;;
65558;SDS011;52203;51.998;5.140;2023-07-28T09:45:15;8.95;;;4.50;;
65558;SDS011;52203;51.998;5.140;2023-07-28T09:47:41;8.05;;;4.40;;
65558;SDS011;52203;51.998;5.140;2023-07-28T09:50:09;9.48;;;4.72;;
65558;SDS011;52203;51.998;5.140;2023-07-28T09:52:42;10.05;;;4.38;;
65558;SDS011;52203;51.998;5.140;2023-07-28T09:55:09;7.72;;;4.68;;
65558;SDS011;52203;51.998;5.140;2023-07-28T09:57:38;9.52;;;4.50;;
65558;SDS011;52203;51.998;5.140;2023-07-28T10:00:24;8.60;;;4.63;;
65558;SDS011;52203;51.998;5.140;2023-07-28T10:02:50;21.60;;;6.20;;
65558;SDS011;52203;51.998;5.140;2023-07-28T10:05:18;14.07;;;6.28;;
65558;SDS011;52203;51.998;5.140;2023-07-28T10:07:44;12.85;;;5.97;;
65558;SDS011;52203;51.998;5.140;2023-07-28T10:10:12;10.13;;;5.15;;
65558;SDS011;52203;51.998;5.140;2023-07-28T10:12:51;9.68;;;5.78;;
65558;SDS011;52203;51.998;5.140;2023-07-28T10:15:20;9.75;;;5.75;;
65558;SDS011;52203;51.998;5.140;2023-07-28T10:17:54;14.80;;;7.25;;
65558;SDS011;52203;51.998;5.140;2023-07-28T10:23:12;13.35;;;7.38;;
65558;SDS011;52203;51.998;5.140;2023-07-28T10:25:38;12.25;;;6.97;;
65558;SDS011;52203;51.998;5.140;2023-07-28T10:28:08;13.38;;;6.60;;
65558;SDS011;52203;51.998;5.140;2023-07-28T10:30:56;13.00;;;5.88;;
65558;SDS011;52203;51.998;5.140;2023-07-28T10:33:29;12.07;;;4.65;;
65558;SDS011;52203;51.998;5.140;2023-07-28T10:36:09;11.02;;;4.70;;
65558;SDS011;52203;51.998;5.140;2023-07-28T10:41:06;10.73;;;5.55;;
65558;SDS011;52203;51.998;5.140;2023-07-28T10:43:33;11.23;;;6.10;;
65558;SDS011;52203;51.998;5.140;2023-07-28T10:45:59;13.30;;;6.55;;
65558;SDS011;52203;51.998;5.140;2023-07-28T10:48:25;12.15;;;7.50;;
65558;SDS011;52203;51.998;5.140;2023-07-28T10:50:51;13.43;;;8.38;;
65558;SDS011;52203;51.998;5.140;2023-07-28T10:53:17;16.40;;;8.18;;
65558;SDS011;52203;51.998;5.140;2023-07-28T10:55:43;15.27;;;8.40;;
65558;SDS011;52203;51.998;5.140;2023-07-28T10:58:09;16.15;;;7.70;;
65558;SDS011;52203;51.998;5.140;2023-07-28T11:00:34;19.27;;;7.85;;
65558;SDS011;52203;51.998;5.140;2023-07-28T11:03:01;14.02;;;7.22;;
65558;SDS011;52203;51.998;5.140;2023-07-28T11:05:27;13.93;;;7.00;;
65558;SDS011;52203;51.998;5.140;2023-07-28T11:07:55;12.90;;;7.22;;
65558;SDS011;52203;51.998;5.140;2023-07-28T11:10:30;12.02;;;7.03;;
65558;SDS011;52203;51.998;5.140;2023-07-28T11:12:59;15.00;;;7.90;;
65558;SDS011;52203;51.998;5.140;2023-07-28T11:15:26;13.13;;;7.32;;
65558;SDS011;52203;51.998;5.140;2023-07-28T11:17:52;10.80;;;6.70;;
65558;SDS011;52203;51.998;5.140;2023-07-28T11:20:22;12.65;;;7.20;;
65558;SDS011;52203;51.998;5.140;2023-07-28T11:22:52;13.38;;;7.10;;
65558;SDS011;52203;51.998;5.140;2023-07-28T11:25:18;13.70;;;6.82;;
65558;SDS011;52203;51.998;5.140;2023-07-28T11:27:44;17.40;;;7.65;;
65558;SDS011;52203;51.998;5.140;2023-07-28T11:30:11;11.90;;;7.05;;
65558;SDS011;52203;51.998;5.140;2023-07-28T11:32:37;10.40;;;6.95;;
65558;SDS011;52203;51.998;5.140;2023-07-28T11:37:34;12.25;;;6.28;;
65558;SDS011;52203;51.998;5.140;2023-07-28T11:40:04;11.85;;;6.45;;
65558;SDS011;52203;51.998;5.140;2023-07-28T11:42:42;11.18;;;6.30;;
65558;SDS011;52203;51.998;5.140;2023-07-28T11:45:10;11.38;;;6.43;;
65558;SDS011;52203;51.998;5.140;2023-07-28T11:47:37;11.18;;;6.30;;
65558;SDS011;52203;51.998;5.140;2023-07-28T11:50:03;9.52;;;5.15;;
65558;SDS011;52203;51.998;5.140;2023-07-28T11:52:36;10.00;;;4.65;;
65558;SDS011;52203;51.998;5.140;2023-07-28T11:55:05;8.27;;;4.18;;
65558;SDS011;52203;51.998;5.140;2023-07-28T11:57:31;8.05;;;4.90;;
65558;SDS011;52203;51.998;5.140;2023-07-28T11:59:58;7.60;;;4.82;;
65558;SDS011;52203;51.998;5.140;2023-07-28T12:02:30;10.63;;;6.00;;
65558;SDS011;52203;51.998;5.140;2023-07-28T12:04:58;9.35;;;5.07;;
65558;SDS011;52203;51.998;5.140;2023-07-28T12:10:04;9.75;;;6.28;;
65558;SDS011;52203;51.998;5.140;2023-07-28T12:12:41;10.20;;;5.72;;
65558;SDS011;52203;51.998;5.140;2023-07-28T12:15:25;10.10;;;6.20;;
65558;SDS011;52203;51.998;5.140;2023-07-28T12:18:12;8.88;;;6.03;;
65558;SDS011;52203;51.998;5.140;2023-07-28T12:20:44;10.73;;;5.80;;
65558;SDS011;52203;51.998;5.140;2023-07-28T12:23:15;12.10;;;6.75;;
65558;SDS011;52203;51.998;5.140;2023-07-28T12:25:42;10.95;;;6.80;;
65558;SDS011;52203;51.998;5.140;2023-07-28T12:28:09;13.05;;;7.45;;
65558;SDS011;52203;51.998;5.140;2023-07-28T12:30:35;14.57;;;7.68;;
65558;SDS011;52203;51.998;5.140;2023-07-28T12:33:02;12.52;;;7.90;;
65558;SDS011;52203;51.998;5.140;2023-07-28T12:35:29;11.93;;;6.35;;
65558;SDS011;52203;51.998;5.140;2023-07-28T12:37:57;10.70;;;7.03;;
65558;SDS011;52203;51.998;5.140;2023-07-28T12:40:25;12.23;;;7.65;;
65558;SDS011;52203;51.998;5.140;2023-07-28T12:42:52;13.32;;;7.80;;
65558;SDS011;52203;51.998;5.140;2023-07-28T12:45:17;12.60;;;7.50;;
65558;SDS011;52203;51.998;5.140;2023-07-28T12:47:43;11.18;;;7.47;;
65558;SDS011;52203;51.998;5.140;2023-07-28T12:50:09;11.15;;;6.78;;
65558;SDS011;52203;51.998;5.140;2023-07-28T12:52:35;11.48;;;7.80;;
65558;SDS011;52203;51.998;5.140;2023-07-28T12:55:02;13.20;;;7.55;;
65558;SDS011;52203;51.998;5.140;2023-07-28T12:57:27;11.00;;;7.45;;
65558;SDS011;52203;51.998;5.140;2023-07-28T12:59:53;10.77;;;7.15;;
65558;SDS011;52203;51.998;5.140;2023-07-28T13:02:19;11.77;;;7.88;;
65558;SDS011;52203;51.998;5.140;2023-07-28T13:04:44;14.07;;;8.90;;
65558;SDS011;52203;51.998;5.140;2023-07-28T13:07:10;14.95;;;8.27;;
65558;SDS011;52203;51.998;5.140;2023-07-28T13:09:35;14.57;;;8.27;;
65558;SDS011;52203;51.998;5.140;2023-07-28T13:12:01;13.00;;;7.97;;
65558;SDS011;52203;51.998;5.140;2023-07-28T13:14:26;12.73;;;7.53;;
65558;SDS011;52203;51.998;5.140;2023-07-28T13:16:52;16.13;;;7.57;;
65558;SDS011;52203;51.998;5.140;2023-07-28T13:19:17;12.95;;;7.40;;
65558;SDS011;52203;51.998;5.140;2023-07-28T13:21:42;9.82;;;6.72;;
65558;SDS011;52203;51.998;5.140;2023-07-28T13:24:08;10.75;;;7.03;;
65558;SDS011;52203;51.998;5.140;2023-07-28T13:26:33;9.70;;;6.68;;
65558;SDS011;52203;51.998;5.140;2023-07-28T13:28:59;10.43;;;5.90;;
65558;SDS011;52203;51.998;5.140;2023-07-28T13:31:26;9.15;;;5.22;;
65558;SDS011;52203;51.998;5.140;2023-07-28T13:33:53;9.38;;;5.53;;
65558;SDS011;52203;51.998;5.140;2023-07-28T13:36:19;11.13;;;6.07;;
65558;SDS011;52203;51.998;5.140;2023-07-28T13:38:44;9.45;;;5.63;;
65558;SDS011;52203;51.998;5.140;2023-07-28T13:41:10;9.15;;;5.57;;
65558;SDS011;52203;51.998;5.140;2023-07-28T13:43:36;8.98;;;5.35;;
65558;SDS011;52203;51.998;5.140;2023-07-28T13:46:05;8.55;;;5.00;;
65558;SDS011;52203;51.998;5.140;2023-07-28T13:48:31;8.80;;;5.75;;
65558;SDS011;52203;51.998;5.140;2023-07-28T13:50:57;9.25;;;5.78;;
65558;SDS011;52203;51.998;5.140;2023-07-28T13:53:23;11.98;;;6.22;;
65558;SDS011;52203;51.998;5.140;2023-07-28T13:55:49;12.25;;;6.45;;
65558;SDS011;52203;51.998;5.140;2023-07-28T13:58:15;8.25;;;5.47;;
65558;SDS011;52203;51.998;5.140;2023-07-28T14:00:41;10.75;;;5.78;;
65558;SDS011;52203;51.998;5.140;2023-07-28T14:03:06;8.05;;;5.32;;
65558;SDS011;52203;51.998;5.140;2023-07-28T14:05:32;8.50;;;5.45;;
65558;SDS011;52203;51.998;5.140;2023-07-28T14:07:58;8.40;;;5.45;;
65558;SDS011;52203;51.998;5.140;2023-07-28T14:10:23;14.15;;;7.03;;
65558;SDS011;52203;51.998;5.140;2023-07-28T14:12:49;11.65;;;7.10;;
65558;SDS011;52203;51.998;5.140;2023-07-28T14:15:15;11.75;;;7.38;;
65558;SDS011;52203;51.998;5.140;2023-07-28T14:17:40;14.20;;;8.43;;
65558;SDS011;52203;51.998;5.140;2023-07-28T14:20:06;16.60;;;8.82;;
65558;SDS011;52203;51.998;5.140;2023-07-28T14:22:33;15.48;;;8.68;;
65558;SDS011;52203;51.998;5.140;2023-07-28T14:24:59;13.80;;;8.30;;
65558;SDS011;52203;51.998;5.140;2023-07-28T14:27:24;13.70;;;7.88;;
65558;SDS011;52203;51.998;5.140;2023-07-28T14:29:50;15.73;;;8.30;;
65558;SDS011;52203;51.998;5.140;2023-07-28T14:32:15;14.45;;;8.43;;
65558;SDS011;52203;51.998;5.140;2023-07-28T14:34:40;14.00;;;7.80;;
65558;SDS011;52203;51.998;5.140;2023-07-28T14:37:06;16.48;;;8.02;;
65558;SDS011;52203;51.998;5.140;2023-07-28T14:39:31;12.07;;;7.50;;
65558;SDS011;52203;51.998;5.140;2023-07-28T14:41:57;13.32;;;6.78;;
65558;SDS011;52203;51.998;5.140;2023-07-28T14:44:22;15.65;;;6.72;;
65558;SDS011;52203;51.998;5.140;2023-07-28T14:46:48;13.40;;;6.97;;